createdAt,value
2018-09-20T00:01:36.748Z,55.60
2018-09-20T00:04:05.101Z,55.80
2018-09-20T00:06:33.557Z,55.80
2018-09-20T00:09:01.897Z,55.70
2018-09-20T00:11:30.401Z,55.70
2018-09-20T00:13:58.769Z,56.00
2018-09-20T00:16:29.232Z,56.10
2018-09-20T00:18:57.593Z,56.10
2018-09-20T00:21:26.024Z,56.80
2018-09-20T00:23:54.387Z,56.10
2018-09-20T00:26:22.818Z,56.10
2018-09-20T00:28:51.176Z,56.20
2018-09-20T00:31:19.656Z,56.30
2018-09-20T00:33:48.488Z,56.40
2018-09-20T00:36:17.013Z,56.60
2018-09-20T00:38:45.370Z,56.50
2018-09-20T00:41:13.837Z,56.50
2018-09-20T00:43:42.204Z,56.70
2018-09-20T00:46:10.668Z,56.80
2018-09-20T00:48:39.012Z,56.70
2018-09-20T00:51:07.545Z,57.00
2018-09-20T00:53:35.900Z,56.70
2018-09-20T00:56:04.343Z,56.70
2018-09-20T00:58:32.724Z,56.80
2018-09-20T01:01:01.149Z,56.90
2018-09-20T01:03:29.517Z,57.00
2018-09-20T01:05:58.076Z,57.00
2018-09-20T01:08:26.445Z,57.00
2018-09-20T01:10:55.012Z,57.40
2018-09-20T01:13:23.419Z,57.10
2018-09-20T01:15:51.974Z,57.20
2018-09-20T01:18:20.371Z,57.10
2018-09-20T01:20:49.860Z,56.60
2018-09-20T01:23:18.174Z,57.40
2018-09-20T01:25:46.807Z,57.60
2018-09-20T01:28:15.125Z,57.50
2018-09-20T01:30:43.591Z,57.50
2018-09-20T01:33:11.927Z,57.60
2018-09-20T01:35:40.462Z,57.70
2018-09-20T01:38:08.824Z,57.70
2018-09-20T01:40:37.383Z,57.80
2018-09-20T01:43:05.728Z,57.90
2018-09-20T01:45:34.208Z,57.90
2018-09-20T01:48:02.564Z,58.00
2018-09-20T01:50:31.133Z,58.10
2018-09-20T01:52:59.568Z,58.10
2018-09-20T01:55:29.192Z,58.10
2018-09-20T01:57:57.564Z,58.20
2018-09-20T02:00:26.092Z,58.30
2018-09-20T02:02:54.592Z,58.30
2018-09-20T02:05:23.128Z,58.20
2018-09-20T02:07:51.498Z,58.20
2018-09-20T02:10:21.000Z,58.40
2018-09-20T02:12:49.420Z,58.50
2018-09-20T02:15:17.904Z,58.50
2018-09-20T02:17:46.286Z,58.50
2018-09-20T02:20:14.741Z,58.50
2018-09-20T02:22:43.129Z,58.50
2018-09-20T02:25:11.679Z,58.60
2018-09-20T02:27:40.113Z,58.60
2018-09-20T02:30:08.665Z,58.60
2018-09-20T02:32:37.021Z,58.70
2018-09-20T02:35:05.490Z,58.70
2018-09-20T02:37:33.815Z,58.70
2018-09-20T02:40:02.384Z,58.70
2018-09-20T02:42:30.804Z,58.70
2018-09-20T02:44:59.272Z,58.60
2018-09-20T02:47:27.677Z,58.70
2018-09-20T02:49:56.223Z,58.80
2018-09-20T02:52:24.683Z,58.90
2018-09-20T02:54:53.267Z,58.90
2018-09-20T02:57:21.599Z,58.50
2018-09-20T02:59:50.076Z,59.00
2018-09-20T03:02:18.412Z,59.10
2018-09-20T03:04:47.009Z,59.10
2018-09-20T03:07:15.364Z,59.20
2018-09-20T03:09:43.813Z,59.20
2018-09-20T03:12:12.260Z,59.20
2018-09-20T03:14:40.824Z,59.30
2018-09-20T03:17:09.252Z,59.20
2018-09-20T03:19:39.728Z,59.20
2018-09-20T03:22:08.065Z,59.20
2018-09-20T03:24:36.513Z,59.40
2018-09-20T03:27:04.884Z,59.50
2018-09-20T03:29:33.688Z,59.60
2018-09-20T03:32:02.063Z,59.60
2018-09-20T03:34:30.526Z,59.60
2018-09-20T03:36:58.880Z,59.60
2018-09-20T03:39:27.320Z,59.70
2018-09-20T03:41:55.679Z,59.60
2018-09-20T03:44:24.112Z,59.60
2018-09-20T03:46:52.495Z,59.70
2018-09-20T03:49:21.022Z,59.90
2018-09-20T03:51:49.522Z,59.90
2018-09-20T03:54:18.043Z,59.90
2018-09-20T03:56:46.472Z,60.00
2018-09-20T03:59:14.948Z,60.10
2018-09-20T04:01:43.339Z,60.10
2018-09-20T04:04:11.826Z,60.20
2018-09-20T04:06:40.176Z,60.20
2018-09-20T04:09:10.214Z,60.20
2018-09-20T04:11:38.756Z,60.30
2018-09-20T04:14:07.354Z,60.30
2018-09-20T04:16:35.847Z,60.30
2018-09-20T04:19:04.252Z,60.30
2018-09-20T04:21:33.721Z,60.30
2018-09-20T04:24:03.412Z,60.30
2018-09-20T04:26:32.197Z,60.40
2018-09-20T04:29:01.022Z,60.40
2018-09-20T04:31:30.126Z,60.40
2018-09-20T04:33:59.830Z,60.50
2018-09-20T04:36:28.350Z,60.60
2018-09-20T04:38:56.839Z,60.60
2018-09-20T04:41:25.183Z,60.70
2018-09-20T04:43:53.607Z,60.70
2018-09-20T04:46:22.064Z,60.70
2018-09-20T04:48:50.514Z,60.70
2018-09-20T04:51:18.834Z,60.70
2018-09-20T04:53:48.376Z,60.80
2018-09-20T04:56:16.723Z,61.00
2018-09-20T04:58:45.265Z,61.10
2018-09-20T05:01:13.595Z,61.00
2018-09-20T05:03:42.232Z,60.90
2018-09-20T05:06:10.569Z,61.10
2018-09-20T05:08:39.243Z,61.00
2018-09-20T05:11:07.929Z,61.10
2018-09-20T05:13:36.456Z,61.90
2018-09-20T05:16:04.811Z,61.20
2018-09-20T05:18:33.343Z,61.80
2018-09-20T05:21:01.737Z,61.20
2018-09-20T05:23:30.159Z,61.40
2018-09-20T05:25:58.632Z,61.30
2018-09-20T05:28:27.158Z,61.40
2018-09-20T05:30:55.524Z,62.20
2018-09-20T05:33:24.405Z,61.20
2018-09-20T05:35:52.942Z,61.30
2018-09-20T05:38:21.472Z,61.40
2018-09-20T05:40:49.810Z,61.40
2018-09-20T05:43:18.433Z,61.40
2018-09-20T05:45:46.773Z,61.40
2018-09-20T05:48:15.294Z,61.40
2018-09-20T05:50:43.689Z,61.50
2018-09-20T05:53:12.215Z,61.60
2018-09-20T05:55:40.556Z,61.50
2018-09-20T05:58:09.020Z,61.50
2018-09-20T06:00:37.631Z,61.60
2018-09-20T06:03:06.176Z,61.70
2018-09-20T06:05:34.544Z,61.70
2018-09-20T06:08:02.996Z,61.70
2018-09-20T06:10:31.302Z,61.60
2018-09-20T06:13:03.471Z,61.50
2018-09-20T06:15:32.127Z,61.70
2018-09-20T06:18:01.870Z,61.70
2018-09-20T06:20:30.323Z,61.60
2018-09-20T06:22:58.831Z,61.60
2018-09-20T06:25:27.148Z,61.60
2018-09-20T06:27:55.722Z,61.80
2018-09-20T06:30:24.059Z,61.90
2018-09-20T06:32:52.561Z,62.00
2018-09-20T06:35:21.802Z,62.00
2018-09-20T06:37:51.532Z,61.90
2018-09-20T06:40:20.519Z,62.00
2018-09-20T06:42:49.113Z,61.80
2018-09-20T06:45:17.441Z,61.90
2018-09-20T06:47:45.871Z,61.80
2018-09-20T06:50:14.270Z,61.70
2018-09-20T06:52:42.794Z,61.70
2018-09-20T06:55:11.202Z,61.60
2018-09-20T06:57:39.732Z,61.80
2018-09-20T07:00:08.455Z,61.80
2018-09-20T07:02:36.977Z,61.70
2018-09-20T07:05:05.740Z,61.50
2018-09-20T07:07:34.281Z,61.50
2018-09-20T07:10:02.651Z,61.50
2018-09-20T07:12:31.347Z,61.60
2018-09-20T07:14:59.767Z,61.50
2018-09-20T07:17:28.332Z,61.40
2018-09-20T07:19:56.704Z,61.40
2018-09-20T07:22:25.157Z,61.40
2018-09-20T07:24:53.555Z,61.40
2018-09-20T07:27:21.987Z,61.30
2018-09-20T07:29:50.335Z,61.30
2018-09-20T07:32:18.907Z,61.20
2018-09-20T07:34:47.286Z,61.20
2018-09-20T07:37:15.696Z,61.00
2018-09-20T07:39:44.069Z,61.00
2018-09-20T07:42:13.625Z,60.70
2018-09-20T07:44:41.950Z,60.50
2018-09-20T07:47:10.445Z,60.40
2018-09-20T07:49:38.824Z,60.30
2018-09-20T07:52:08.348Z,60.00
2018-09-20T07:54:36.716Z,59.80
2018-09-20T07:57:05.162Z,59.70
2018-09-20T07:59:33.468Z,59.50
2018-09-20T08:02:01.986Z,59.40
2018-09-20T08:04:30.286Z,59.20
2018-09-20T08:06:58.774Z,59.90
2018-09-20T08:09:27.085Z,59.00
2018-09-20T08:11:55.565Z,58.90
2018-09-20T08:14:23.904Z,58.80
2018-09-20T08:16:52.450Z,58.60
2018-09-20T08:19:20.785Z,58.50
2018-09-20T08:21:49.269Z,58.60
2018-09-20T08:24:17.635Z,58.70
2018-09-20T08:26:46.119Z,58.50
2018-09-20T08:29:14.435Z,58.40
2018-09-20T08:31:42.972Z,58.40
2018-09-20T08:34:11.392Z,58.40
2018-09-20T08:36:39.873Z,58.40
2018-09-20T08:39:09.652Z,58.30
2018-09-20T08:41:38.356Z,58.30
2018-09-20T08:44:07.075Z,58.40
2018-09-20T08:46:35.522Z,58.30
2018-09-20T08:49:04.028Z,58.10
2018-09-20T08:51:32.529Z,58.00
2018-09-20T08:54:00.902Z,58.10
2018-09-20T08:56:29.467Z,58.00
2018-09-20T08:58:57.849Z,58.10
2018-09-20T09:01:26.299Z,58.00
2018-09-20T09:03:54.630Z,57.80
2018-09-20T09:06:23.106Z,57.70
2018-09-20T09:08:51.533Z,57.40
2018-09-20T09:11:19.959Z,57.40
2018-09-20T09:13:48.385Z,57.10
2018-09-20T09:16:16.901Z,56.90
2018-09-20T09:18:45.473Z,56.70
2018-09-20T09:21:13.922Z,56.70
2018-09-20T09:23:42.321Z,56.70
2018-09-20T09:26:10.898Z,56.60
2018-09-20T09:28:39.327Z,56.50
2018-09-20T09:31:07.878Z,56.50
2018-09-20T09:33:36.246Z,56.60
2018-09-20T09:36:04.849Z,56.60
2018-09-20T09:38:33.236Z,56.60
2018-09-20T09:41:01.820Z,56.40
2018-09-20T09:43:30.162Z,56.00
2018-09-20T09:45:58.659Z,55.20
2018-09-20T09:48:27.083Z,54.90
2018-09-20T09:50:55.606Z,54.50
2018-09-20T09:53:24.033Z,54.30
2018-09-20T09:55:52.530Z,54.20
2018-09-20T09:58:20.907Z,54.20
2018-09-20T10:00:49.385Z,54.00
2018-09-20T10:03:17.724Z,54.00
2018-09-20T10:05:46.349Z,53.80
2018-09-20T10:08:14.866Z,53.20
2018-09-20T10:10:43.329Z,52.90
2018-09-20T10:13:11.786Z,52.90
2018-09-20T10:15:40.358Z,52.90
2018-09-20T10:18:08.905Z,52.60
2018-09-20T10:20:37.352Z,52.30
2018-09-20T10:23:05.680Z,52.00
2018-09-20T10:25:34.124Z,51.90
2018-09-20T10:28:02.510Z,52.00
2018-09-20T10:30:30.942Z,51.90
2018-09-20T10:32:59.291Z,52.50
2018-09-20T10:35:27.746Z,51.30
2018-09-20T10:37:56.084Z,50.90
2018-09-20T10:40:24.550Z,51.10
2018-09-20T10:42:52.911Z,51.20
2018-09-20T10:45:21.339Z,51.40
2018-09-20T10:47:49.673Z,51.30
2018-09-20T10:50:18.195Z,51.00
2018-09-20T10:52:46.517Z,50.70
2018-09-20T10:55:15.210Z,50.70
2018-09-20T10:57:43.519Z,50.80
2018-09-20T11:00:12.145Z,50.50
2018-09-20T11:02:40.493Z,49.90
2018-09-20T11:05:09.002Z,49.70
2018-09-20T11:07:37.396Z,49.80
2018-09-20T11:10:05.867Z,49.80
2018-09-20T11:12:34.208Z,50.10
2018-09-20T11:15:02.689Z,49.80
2018-09-20T11:17:31.084Z,49.80
2018-09-20T11:19:59.456Z,50.20
2018-09-20T11:22:27.799Z,50.20
2018-09-20T11:24:56.310Z,49.90
2018-09-20T11:27:24.682Z,49.70
2018-09-20T11:29:53.256Z,49.80
2018-09-20T11:32:21.587Z,50.00
2018-09-20T11:34:50.433Z,49.80
2018-09-20T11:37:18.819Z,50.50
2018-09-20T11:39:47.281Z,49.50
2018-09-20T11:42:15.731Z,49.40
2018-09-20T11:44:44.201Z,49.40
2018-09-20T11:47:12.578Z,50.30
2018-09-20T11:49:41.125Z,49.70
2018-09-20T11:52:09.462Z,49.50
2018-09-20T11:54:38.004Z,49.40
2018-09-20T11:57:06.312Z,49.20
2018-09-20T11:59:34.820Z,49.10
2018-09-20T12:02:03.205Z,49.20
2018-09-20T12:04:31.673Z,49.40
2018-09-20T12:07:00.079Z,49.90
2018-09-20T12:09:28.476Z,49.80
2018-09-20T12:11:56.872Z,49.60
2018-09-20T12:14:25.433Z,49.20
2018-09-20T12:16:53.764Z,48.50
2018-09-20T12:19:22.268Z,48.20
2018-09-20T12:21:50.638Z,48.30
2018-09-20T12:24:19.161Z,48.40
2018-09-20T12:26:47.515Z,48.10
2018-09-20T12:29:17.093Z,48.20
2018-09-20T12:31:45.513Z,48.30
2018-09-20T12:34:13.916Z,48.40
2018-09-20T12:36:42.271Z,48.40
2018-09-20T12:39:13.126Z,48.20
2018-09-20T12:41:41.756Z,48.00
2018-09-20T12:44:10.844Z,47.80
2018-09-20T12:46:39.178Z,47.50
2018-09-20T12:49:07.678Z,47.40
2018-09-20T12:51:36.244Z,47.40
2018-09-20T12:54:04.777Z,47.40
2018-09-20T12:56:33.115Z,47.40
2018-09-20T12:59:01.631Z,47.30
2018-09-20T13:01:29.975Z,47.20
2018-09-20T13:03:58.502Z,47.20
2018-09-20T13:06:26.849Z,47.00
2018-09-20T13:08:55.308Z,47.10
2018-09-20T13:11:23.656Z,47.20
2018-09-20T13:13:52.194Z,47.00
2018-09-20T13:16:20.693Z,46.90
2018-09-20T13:18:49.178Z,46.80
2018-09-20T13:21:17.500Z,47.00
2018-09-20T13:23:46.048Z,46.80
2018-09-20T13:26:14.364Z,46.60
2018-09-20T13:28:42.923Z,46.20
2018-09-20T13:31:11.348Z,45.90
2018-09-20T13:33:40.805Z,46.00
2018-09-20T13:36:09.174Z,45.90
2018-09-20T13:38:38.689Z,45.90
2018-09-20T13:41:07.052Z,45.90
2018-09-20T13:43:35.575Z,46.00
2018-09-20T13:46:03.909Z,46.10
2018-09-20T13:48:32.358Z,45.80
2018-09-20T13:51:00.724Z,46.40
2018-09-20T13:53:29.152Z,45.80
2018-09-20T13:55:57.470Z,45.70
2018-09-20T13:58:26.182Z,45.60
2018-09-20T14:00:54.548Z,45.60
2018-09-20T14:03:24.136Z,45.60
2018-09-20T14:05:52.538Z,45.70
2018-09-20T14:08:22.804Z,45.70
2018-09-20T14:10:51.210Z,45.70
2018-09-20T14:13:19.636Z,45.60
2018-09-20T14:15:48.032Z,45.60
2018-09-20T14:18:16.378Z,45.40
2018-09-20T14:20:44.712Z,45.30
2018-09-20T14:23:13.149Z,45.10
2018-09-20T14:25:41.480Z,44.90
2018-09-20T14:28:09.900Z,44.90
2018-09-20T14:30:38.270Z,44.80
2018-09-20T14:33:06.772Z,44.70
2018-09-20T14:35:35.124Z,44.70
2018-09-20T14:38:03.502Z,44.60
2018-09-20T14:40:31.870Z,44.30
2018-09-20T14:43:00.320Z,44.40
2018-09-20T14:45:28.703Z,44.40
2018-09-20T14:47:57.175Z,44.40
2018-09-20T14:50:25.577Z,44.40
2018-09-20T14:52:54.031Z,44.40
2018-09-20T14:55:22.378Z,44.20
2018-09-20T14:57:50.838Z,44.30
2018-09-20T15:00:19.186Z,44.20
2018-09-20T15:02:47.704Z,44.10
2018-09-20T15:05:16.064Z,44.00
2018-09-20T15:07:44.635Z,44.00
2018-09-20T15:10:12.985Z,44.10
2018-09-20T15:12:41.453Z,44.30
2018-09-20T15:15:09.871Z,44.20
2018-09-20T15:17:39.152Z,44.00
2018-09-20T15:20:07.510Z,44.00
2018-09-20T15:22:36.572Z,43.40
2018-09-20T15:25:04.974Z,44.00
2018-09-20T15:27:33.615Z,44.00
2018-09-20T15:30:02.127Z,43.90
2018-09-20T15:32:31.231Z,43.80
2018-09-20T15:34:59.536Z,43.90
2018-09-20T15:37:28.068Z,43.70
2018-09-20T15:39:56.493Z,43.40
2018-09-20T15:42:25.021Z,43.30
2018-09-20T15:44:53.842Z,43.30
2018-09-20T15:47:22.426Z,43.30
2018-09-20T15:49:50.844Z,43.30
2018-09-20T15:52:20.317Z,43.40
2018-09-20T15:54:48.906Z,43.50
2018-09-20T15:57:17.334Z,43.60
2018-09-20T15:59:45.776Z,43.60
2018-09-20T16:02:14.221Z,43.60
2018-09-20T16:04:42.628Z,43.70
2018-09-20T16:07:11.208Z,43.70
2018-09-20T16:09:39.601Z,43.80
2018-09-20T16:12:08.146Z,43.80
2018-09-20T16:14:36.633Z,43.80
2018-09-20T16:17:05.176Z,43.90
2018-09-20T16:19:33.720Z,43.90
2018-09-20T16:22:02.165Z,44.00
2018-09-20T16:24:30.672Z,44.30
2018-09-20T16:26:59.174Z,44.30
2018-09-20T16:29:34.689Z,44.10
2018-09-20T16:34:35.525Z,44.10
2018-09-20T16:37:19.762Z,44.10
2018-09-20T16:39:49.219Z,44.10
2018-09-20T16:42:18.501Z,44.40
2018-09-20T16:44:47.017Z,44.20
2018-09-20T16:47:15.379Z,45.00
2018-09-20T16:49:43.880Z,44.10
2018-09-20T16:52:12.239Z,44.00
2018-09-20T16:54:40.766Z,44.10
2018-09-20T16:57:09.146Z,44.20
2018-09-20T16:59:37.796Z,44.40
2018-09-20T17:02:06.301Z,44.50
2018-09-20T17:04:34.975Z,45.30
2018-09-20T17:07:03.423Z,44.60
2018-09-20T17:09:31.988Z,44.70
2018-09-20T17:12:00.356Z,44.70
2018-09-20T17:14:28.830Z,45.00
2018-09-20T17:16:57.213Z,45.20
2018-09-20T17:19:26.748Z,45.20
2018-09-20T17:21:55.180Z,45.30
2018-09-20T17:24:23.754Z,45.60
2018-09-20T17:26:52.173Z,45.80
2018-09-20T17:29:20.825Z,45.80
2018-09-20T17:31:49.249Z,45.90
2018-09-20T17:34:17.868Z,46.00
2018-09-20T17:36:46.989Z,46.10
2018-09-20T17:39:16.218Z,46.30
2018-09-20T17:41:45.862Z,46.60
2018-09-20T17:44:14.407Z,46.60
2018-09-20T17:46:42.912Z,46.90
2018-09-20T17:49:11.461Z,47.00
2018-09-20T17:51:40.136Z,47.00
2018-09-20T17:54:08.965Z,47.90
2018-09-20T17:56:37.657Z,47.50
2018-09-20T17:59:06.089Z,47.60
2018-09-20T18:01:34.927Z,48.50
2018-09-20T18:04:03.366Z,48.00
2018-09-20T18:06:31.907Z,48.20
2018-09-20T18:09:00.304Z,48.50
2018-09-20T18:11:28.837Z,48.80
2018-09-20T18:13:57.248Z,49.00
2018-09-20T18:16:25.664Z,49.10
2018-09-20T18:18:54.224Z,49.30
2018-09-20T18:21:22.692Z,49.40
2018-09-20T18:23:51.141Z,49.60
2018-09-20T18:26:19.568Z,49.90
2018-09-20T18:28:48.019Z,50.00
2018-09-20T18:31:16.615Z,50.00
2018-09-20T18:33:45.031Z,50.10
2018-09-20T18:36:13.652Z,50.40
2018-09-20T18:38:42.049Z,50.50
2018-09-20T18:41:10.592Z,50.50
2018-09-20T18:43:38.964Z,50.60
2018-09-20T18:46:07.488Z,50.70
2018-09-20T18:48:36.300Z,50.90
2018-09-20T18:51:04.668Z,51.00
2018-09-20T18:53:33.107Z,51.10
2018-09-20T18:56:01.527Z,51.30
2018-09-20T18:58:29.949Z,51.40
2018-09-20T19:00:58.461Z,51.50
2018-09-20T19:03:26.964Z,52.30
2018-09-20T19:05:55.878Z,51.70
2018-09-20T19:08:24.468Z,51.70
2018-09-20T19:10:53.124Z,51.80
2018-09-20T19:13:21.470Z,51.90
2018-09-20T19:15:50.032Z,52.00
2018-09-20T19:18:18.386Z,52.10
2018-09-20T19:20:48.890Z,52.90
2018-09-20T19:23:17.312Z,52.30
2018-09-20T19:25:45.785Z,52.60
2018-09-20T19:28:14.324Z,52.60
2018-09-20T19:30:42.826Z,53.50
2018-09-20T19:33:11.211Z,52.70
2018-09-20T19:35:39.787Z,52.90
2018-09-20T19:38:08.167Z,52.90
2018-09-20T19:40:36.661Z,53.00
2018-09-20T19:43:05.059Z,53.10
2018-09-20T19:45:33.617Z,53.00
2018-09-20T19:48:02.018Z,53.00
2018-09-20T19:50:30.469Z,53.00
2018-09-20T19:52:58.896Z,53.00
2018-09-20T19:55:27.289Z,53.00
2018-09-20T19:57:55.688Z,53.10
2018-09-20T20:00:24.144Z,53.30
2018-09-20T20:02:52.592Z,53.30
2018-09-20T20:05:20.964Z,53.30
2018-09-20T20:07:49.508Z,53.30
2018-09-20T20:10:17.869Z,53.20
2018-09-20T20:12:46.419Z,53.20
2018-09-20T20:15:14.777Z,53.10
2018-09-20T20:17:43.132Z,53.10
2018-09-20T20:20:11.584Z,53.20
2018-09-20T20:22:39.938Z,53.90
2018-09-20T20:25:08.388Z,53.20
2018-09-20T20:27:36.735Z,53.20
2018-09-20T20:30:05.443Z,53.10
2018-09-20T20:32:33.856Z,53.00
2018-09-20T20:35:02.179Z,53.00
2018-09-20T20:37:30.572Z,52.80
2018-09-20T20:39:59.068Z,52.90
2018-09-20T20:42:27.414Z,52.80
2018-09-20T20:44:55.889Z,52.70
2018-09-20T20:47:24.193Z,52.60
2018-09-20T20:49:52.684Z,52.70
2018-09-20T20:52:21.000Z,52.50
2018-09-20T20:54:49.473Z,52.50
2018-09-20T20:57:17.829Z,52.30
2018-09-20T20:59:46.339Z,52.30
2018-09-20T21:02:14.709Z,52.30
2018-09-20T21:04:43.160Z,52.00
2018-09-20T21:07:11.509Z,51.90
2018-09-20T21:09:39.937Z,52.40
2018-09-20T21:12:08.350Z,51.70
2018-09-20T21:14:36.836Z,51.60
2018-09-20T21:17:05.200Z,51.50
2018-09-20T21:19:33.607Z,51.40
2018-09-20T21:22:01.999Z,51.30
2018-09-20T21:24:33.813Z,51.10
2018-09-20T21:27:02.218Z,51.10
2018-09-20T21:29:30.752Z,51.00
2018-09-20T21:31:59.154Z,51.00
2018-09-20T21:34:52.780Z,51.70
2018-09-20T21:37:42.458Z,50.80
2018-09-20T21:40:11.096Z,50.80
2018-09-20T21:42:43.612Z,50.70
2018-09-20T21:45:12.045Z,50.70
2018-09-20T21:47:40.625Z,50.60
2018-09-20T21:50:09.990Z,50.60
2018-09-20T21:52:45.624Z,50.60
2018-09-20T21:55:14.001Z,50.60
2018-09-20T21:57:43.457Z,50.60
2018-09-20T22:00:11.881Z,50.70
2018-09-20T22:02:46.194Z,50.80
2018-09-20T22:05:14.804Z,50.60
2018-09-20T22:07:48.582Z,50.60
2018-09-20T22:10:16.940Z,50.70
2018-09-20T22:12:45.540Z,50.50
2018-09-20T22:15:37.622Z,50.50
2018-09-20T22:18:06.052Z,50.50
2018-09-20T22:20:38.894Z,51.20
2018-09-20T22:23:08.017Z,50.50
2018-09-20T22:25:39.879Z,50.30
2018-09-20T22:28:08.296Z,51.00
2018-09-20T22:30:42.601Z,50.10
2018-09-20T22:33:10.983Z,50.00
2018-09-20T22:35:39.465Z,49.90
2018-09-20T22:38:07.889Z,49.60
2018-09-20T22:40:40.016Z,49.50
2018-09-20T22:43:08.431Z,49.50
2018-09-20T22:45:40.574Z,50.00
2018-09-20T22:48:09.095Z,49.40
2018-09-20T22:50:38.521Z,49.30
2018-09-20T22:53:07.291Z,49.20
2018-09-20T22:55:35.747Z,49.20
2018-09-20T22:58:04.156Z,49.20
2018-09-20T23:00:38.829Z,49.10
2018-09-20T23:03:07.318Z,49.00
2018-09-20T23:05:37.745Z,49.60
2018-09-20T23:08:06.207Z,49.00
2018-09-20T23:10:34.660Z,49.70
2018-09-20T23:13:03.017Z,49.00
2018-09-20T23:15:31.416Z,49.00
2018-09-20T23:17:59.787Z,49.00
2018-09-20T23:20:31.388Z,48.90
2018-09-20T23:22:59.765Z,48.90
2018-09-20T23:25:46.065Z,49.00
2018-09-20T23:28:14.434Z,49.10
2018-09-20T23:30:54.135Z,49.10
2018-09-20T23:33:22.491Z,49.10
2018-09-20T23:35:55.257Z,49.20
2018-09-20T23:38:23.608Z,49.20
2018-09-20T23:40:54.208Z,49.20
2018-09-20T23:43:22.572Z,49.30
2018-09-20T23:45:53.831Z,49.20
2018-09-20T23:48:22.200Z,49.30
2018-09-20T23:50:52.818Z,49.30
2018-09-20T23:53:21.146Z,49.30
2018-09-20T23:55:52.740Z,49.20
2018-09-20T23:58:21.098Z,49.30
